Big Piney River (Missouri), Big Piney (06930000)

StateMissouriCurrentGood (375 cfs)
RiverBig Piney RiverFlood - The river is flooding. Obstacles can be treacherous or deadly. The river should be avoided at this stage for casual trips and definitely for the inexperienced. Trips should be attempted only with protective gear and equipment.Flood(none)
Updated2019-12-13 20:00 (38 minutes ago)High - The river is high and potentially dangerous, especially for the young and / or inexperienced. Normal stream obstacles are sometimes difficult to navigate. Extended distances can be attempted, but canoe travel may not be advisable.High(none)
Discharge375 cfs (median: 244 cfs)Good - Conditions are ideal for a canoe or kayak. Boats typically will drag on fewer than one-quarter of riffles, if at all, and portages are unnecessary or rare. Normal float lengths can be attempted without a problem.Good180
Height3.09 feetLow - River is low but can still be floated. Some riffles are okay but most come with significant dragging and might need a portage. Float lengths should be reduced to accommodate low flow, dragging, and portages.Low(none)
TrendSteady (falling over 24 hours)Poor - River is too low to float comfortably. Most or all riffles will drag or must be portaged and some obstacles (such as slick shelf rock) cause undue problems. Avoid the river at this stage for casual paddling trips.Poor(none)
USGSExternal icon USGS Site for Big Piney (06930000)LocationExternal icon Google Maps

Trending Data

Plot Image
ObservationHeightDischargeMaximum
Discharge
Minimum
Discharge
Mean
Discharge
P05P10P20P25P50
(Median)
P75P80P90P95
2019-12-13 20:00 3.09 375 4110 (1947) 97 (1956) 384 124 132 156 165 244 420 468 713 1090
2019-12-13 19:00 3.09 375 4110 (1947) 97 (1956) 384 124 132 156 165 244 420 468 713 1090
2019-12-13 18:00 3.09 375 4110 (1947) 97 (1956) 384 124 132 156 165 244 420 468 713 1090
2019-12-13 17:00 3.09 375 4110 (1947) 97 (1956) 384 124 132 156 165 244 420 468 713 1090
2019-12-13 16:00 3.09 375 4110 (1947) 97 (1956) 384 124 132 156 165 244 420 468 713 1090
2019-12-13 15:00 3.09 375 4110 (1947) 97 (1956) 384 124 132 156 165 244 420 468 713 1090
2019-12-13 14:00 3.10 379 4110 (1947) 97 (1956) 384 124 132 156 165 244 420 468 713 1090
2019-12-13 13:00 3.10 379 4110 (1947) 97 (1956) 384 124 132 156 165 244 420 468 713 1090
2019-12-13 12:00 3.10 379 4110 (1947) 97 (1956) 384 124 132 156 165 244 420 468 713 1090
2019-12-12 22:00 3.12 387 2380 (1961) 97 (1956) 376 122 131 157 163 242 432 515 774 1100
2019-12-12 21:00 3.12 387 2380 (1961) 97 (1956) 376 122 131 157 163 242 432 515 774 1100
2019-12-12 20:00 3.13 391 2380 (1961) 97 (1956) 376 122 131 157 163 242 432 515 774 1100
2019-12-12 19:00 3.13 391 2380 (1961) 97 (1956) 376 122 131 157 163 242 432 515 774 1100
2019-12-12 18:00 3.14 395 2380 (1961) 97 (1956) 376 122 131 157 163 242 432 515 774 1100
2019-12-12 17:00 3.13 391 2380 (1961) 97 (1956) 376 122 131 157 163 242 432 515 774 1100
2019-12-12 16:00 3.14 395 2380 (1961) 97 (1956) 376 122 131 157 163 242 432 515 774 1100
2019-12-12 15:00 3.14 395 2380 (1961) 97 (1956) 376 122 131 157 163 242 432 515 774 1100
2019-12-12 14:00 3.14 395 2380 (1961) 97 (1956) 376 122 131 157 163 242 432 515 774 1100
2019-12-12 13:00 3.15 399 2380 (1961) 97 (1956) 376 122 131 157 163 242 432 515 774 1100
2019-12-12 12:00 3.14 395 2380 (1961) 97 (1956) 376 122 131 157 163 242 432 515 774 1100
2019-12-12 11:00 3.15 399 2380 (1961) 97 (1956) 376 122 131 157 163 242 432 515 774 1100
2019-12-12 10:00 3.15 399 2380 (1961) 97 (1956) 376 122 131 157 163 242 432 515 774 1100
2019-12-12 09:00 3.15 399 2380 (1961) 97 (1956) 376 122 131 157 163 242 432 515 774 1100
2019-12-12 08:00 3.15 399 2380 (1961) 97 (1956) 376 122 131 157 163 242 432 515 774 1100
2019-12-12 07:00 3.16 403 2380 (1961) 97 (1956) 376 122 131 157 163 242 432 515 774 1100
2019-12-12 06:00 3.16 403 2380 (1961) 97 (1956) 376 122 131 157 163 242 432 515 774 1100
2019-12-12 05:00 3.16 403 2380 (1961) 97 (1956) 376 122 131 157 163 242 432 515 774 1100
2019-12-12 04:00 3.16 403 2380 (1961) 97 (1956) 376 122 131 157 163 242 432 515 774 1100
2019-12-12 03:00 3.17 407 2380 (1961) 97 (1956) 376 122 131 157 163 242 432 515 774 1100
2019-12-12 02:00 3.17 407 2380 (1961) 97 (1956) 376 122 131 157 163 242 432 515 774 1100
2019-12-12 01:00 3.18 411 2380 (1961) 97 (1956) 376 122 131 157 163 242 432 515 774 1100
2019-12-12 00:00 3.18 411 2380 (1961) 97 (1956) 376 122 131 157 163 242 432 515 774 1100
2019-12-11 23:00 3.18 411 2310 (1972) 94 (1938) 370 121 130 152 164 240 424 486 688 993
2019-12-11 22:00 3.19 416 2310 (1972) 94 (1938) 370 121 130 152 164 240 424 486 688 993
2019-12-11 21:00 3.19 416 2310 (1972) 94 (1938) 370 121 130 152 164 240 424 486 688 993
2019-12-11 20:00 3.19 416 2310 (1972) 94 (1938) 370 121 130 152 164 240 424 486 688 993
2019-12-11 19:00 3.20 420 2310 (1972) 94 (1938) 370 121 130 152 164 240 424 486 688 993
2019-12-11 18:00 3.20 420 2310 (1972) 94 (1938) 370 121 130 152 164 240 424 486 688 993
2019-12-11 17:00 3.21 424 2310 (1972) 94 (1938) 370 121 130 152 164 240 424 486 688 993
2019-12-11 16:00 3.21 424 2310 (1972) 94 (1938) 370 121 130 152 164 240 424 486 688 993
2019-12-11 15:00 3.21 424 2310 (1972) 94 (1938) 370 121 130 152 164 240 424 486 688 993
2019-12-11 14:00 3.21 424 2310 (1972) 94 (1938) 370 121 130 152 164 240 424 486 688 993
2019-12-11 13:00 3.21 424 2310 (1972) 94 (1938) 370 121 130 152 164 240 424 486 688 993
2019-12-11 12:00 3.21 424 2310 (1972) 94 (1938) 370 121 130 152 164 240 424 486 688 993
2019-12-11 11:00 3.22 428 2310 (1972) 94 (1938) 370 121 130 152 164 240 424 486 688 993
2019-12-11 10:00 3.23 432 2310 (1972) 94 (1938) 370 121 130 152 164 240 424 486 688 993
2019-12-11 09:00 3.22 428 2310 (1972) 94 (1938) 370 121 130 152 164 240 424 486 688 993
2019-12-11 08:00 3.23 432 2310 (1972) 94 (1938) 370 121 130 152 164 240 424 486 688 993
2019-12-11 07:00 3.23 432 2310 (1972) 94 (1938) 370 121 130 152 164 240 424 486 688 993
2019-12-11 06:00 3.24 437 2310 (1972) 94 (1938) 370 121 130 152 164 240 424 486 688 993
2019-12-11 05:00 3.24 437 2310 (1972) 94 (1938) 370 121 130 152 164 240 424 486 688 993
2019-12-11 04:00 3.25 441 2310 (1972) 94 (1938) 370 121 130 152 164 240 424 486 688 993
2019-12-11 03:00 3.25 441 2310 (1972) 94 (1938) 370 121 130 152 164 240 424 486 688 993
2019-12-11 02:00 3.26 445 2310 (1972) 94 (1938) 370 121 130 152 164 240 424 486 688 993
2019-12-11 01:00 3.26 445 2310 (1972) 94 (1938) 370 121 130 152 164 240 424 486 688 993
2019-12-11 00:00 3.26 445 2310 (1972) 94 (1938) 370 121 130 152 164 240 424 486 688 993
2019-12-10 23:00 3.27 450 1350 (2004) 97 (1956) 327 116 130 147 164 252 431 454 602 934
2019-12-10 22:00 3.27 450 1350 (2004) 97 (1956) 327 116 130 147 164 252 431 454 602 934
2019-12-10 21:00 3.27 450 1350 (2004) 97 (1956) 327 116 130 147 164 252 431 454 602 934
2019-12-10 20:00 3.28 454 1350 (2004) 97 (1956) 327 116 130 147 164 252 431 454 602 934
2019-12-10 19:00 3.28 454 1350 (2004) 97 (1956) 327 116 130 147 164 252 431 454 602 934
2019-12-10 18:00 3.29 459 1350 (2004) 97 (1956) 327 116 130 147 164 252 431 454 602 934
2019-12-10 17:00 3.28 454 1350 (2004) 97 (1956) 327 116 130 147 164 252 431 454 602 934
2019-12-10 16:00 3.29 459 1350 (2004) 97 (1956) 327 116 130 147 164 252 431 454 602 934
2019-12-10 15:00 3.29 459 1350 (2004) 97 (1956) 327 116 130 147 164 252 431 454 602 934
2019-12-10 14:00 3.30 463 1350 (2004) 97 (1956) 327 116 130 147 164 252 431 454 602 934
2019-12-10 13:00 3.30 463 1350 (2004) 97 (1956) 327 116 130 147 164 252 431 454 602 934
2019-12-10 12:00 3.30 463 1350 (2004) 97 (1956) 327 116 130 147 164 252 431 454 602 934
2019-12-10 11:00 3.30 463 1350 (2004) 97 (1956) 327 116 130 147 164 252 431 454 602 934
2019-12-10 10:00 3.31 468 1350 (2004) 97 (1956) 327 116 130 147 164 252 431 454 602 934
2019-12-10 09:00 3.30 463 1350 (2004) 97 (1956) 327 116 130 147 164 252 431 454 602 934
2019-12-10 08:00 3.31 468 1350 (2004) 97 (1956) 327 116 130 147 164 252 431 454 602 934
2019-12-10 07:00 3.31 468 1350 (2004) 97 (1956) 327 116 130 147 164 252 431 454 602 934
2019-12-10 06:00 3.31 468 1350 (2004) 97 (1956) 327 116 130 147 164 252 431 454 602 934
2019-12-10 05:00 3.32 472 1350 (2004) 97 (1956) 327 116 130 147 164 252 431 454 602 934
2019-12-10 04:00 3.32 472 1350 (2004) 97 (1956) 327 116 130 147 164 252 431 454 602 934
2019-12-10 03:00 3.32 472 1350 (2004) 97 (1956) 327 116 130 147 164 252 431 454 602 934
2019-12-10 02:00 3.33 477 1350 (2004) 97 (1956) 327 116 130 147 164 252 431 454 602 934
2019-12-10 01:00 3.33 477 1350 (2004) 97 (1956) 327 116 130 147 164 252 431 454 602 934
2019-12-10 00:00 3.33 477 1350 (2004) 97 (1956) 327 116 130 147 164 252 431 454 602 934
2019-12-09 23:00 3.34 481 1390 (2005) 99 (1956) 325 116 127 145 162 225 406 445 678 991
2019-12-09 22:00 3.34 481 1390 (2005) 99 (1956) 325 116 127 145 162 225 406 445 678 991
2019-12-09 21:00 3.34 481 1390 (2005) 99 (1956) 325 116 127 145 162 225 406 445 678 991
2019-12-09 20:00 3.34 481 1390 (2005) 99 (1956) 325 116 127 145 162 225 406 445 678 991
2019-12-09 19:00 3.34 481 1390 (2005) 99 (1956) 325 116 127 145 162 225 406 445 678 991
2019-12-09 18:00 3.35 486 1390 (2005) 99 (1956) 325 116 127 145 162 225 406 445 678 991
2019-12-09 17:00 3.35 486 1390 (2005) 99 (1956) 325 116 127 145 162 225 406 445 678 991
2019-12-09 16:00 3.36 491 1390 (2005) 99 (1956) 325 116 127 145 162 225 406 445 678 991
2019-12-09 15:00 3.35 486 1390 (2005) 99 (1956) 325 116 127 145 162 225 406 445 678 991
2019-12-09 14:00 3.36 491 1390 (2005) 99 (1956) 325 116 127 145 162 225 406 445 678 991
2019-12-09 13:00 3.36 491 1390 (2005) 99 (1956) 325 116 127 145 162 225 406 445 678 991
2019-12-09 12:00 3.37 495 1390 (2005) 99 (1956) 325 116 127 145 162 225 406 445 678 991
2019-12-09 11:00 3.37 495 1390 (2005) 99 (1956) 325 116 127 145 162 225 406 445 678 991
2019-12-09 10:00 3.37 495 1390 (2005) 99 (1956) 325 116 127 145 162 225 406 445 678 991
2019-12-09 09:00 3.37 495 1390 (2005) 99 (1956) 325 116 127 145 162 225 406 445 678 991
2019-12-09 08:00 3.38 500 1390 (2005) 99 (1956) 325 116 127 145 162 225 406 445 678 991
2019-12-09 07:00 3.38 500 1390 (2005) 99 (1956) 325 116 127 145 162 225 406 445 678 991
2019-12-09 06:00 3.38 500 1390 (2005) 99 (1956) 325 116 127 145 162 225 406 445 678 991
2019-12-09 05:00 3.38 500 1390 (2005) 99 (1956) 325 116 127 145 162 225 406 445 678 991
2019-12-09 04:00 3.39 505 1390 (2005) 99 (1956) 325 116 127 145 162 225 406 445 678 991
2019-12-09 03:00 3.39 505 1390 (2005) 99 (1956) 325 116 127 145 162 225 406 445 678 991
2019-12-09 02:00 3.39 505 1390 (2005) 99 (1956) 325 116 127 145 162 225 406 445 678 991
2019-12-09 01:00 3.40 510 1390 (2005) 99 (1956) 325 116 127 145 162 225 406 445 678 991
2019-12-09 00:00 3.40 510 1390 (2005) 99 (1956) 325 116 127 145 162 225 406 445 678 991
2019-12-08 23:00 3.41 514 2120 (2005) 99 (1956) 349 118 127 142 153 218 433 492 781 1130
2019-12-08 22:00 3.41 514 2120 (2005) 99 (1956) 349 118 127 142 153 218 433 492 781 1130
2019-12-08 21:00 3.41 514 2120 (2005) 99 (1956) 349 118 127 142 153 218 433 492 781 1130
2019-12-08 20:00 3.41 514 2120 (2005) 99 (1956) 349 118 127 142 153 218 433 492 781 1130
2019-12-08 19:00 3.42 519 2120 (2005) 99 (1956) 349 118 127 142 153 218 433 492 781 1130
2019-12-08 18:00 3.42 519 2120 (2005) 99 (1956) 349 118 127 142 153 218 433 492 781 1130
2019-12-08 17:00 3.42 519 2120 (2005) 99 (1956) 349 118 127 142 153 218 433 492 781 1130
2019-12-08 16:00 3.43 524 2120 (2005) 99 (1956) 349 118 127 142 153 218 433 492 781 1130
2019-12-08 15:00 3.43 524 2120 (2005) 99 (1956) 349 118 127 142 153 218 433 492 781 1130
2019-12-08 14:00 3.43 524 2120 (2005) 99 (1956) 349 118 127 142 153 218 433 492 781 1130
2019-12-08 13:00 3.44 529 2120 (2005) 99 (1956) 349 118 127 142 153 218 433 492 781 1130
2019-12-08 12:00 3.44 529 2120 (2005) 99 (1956) 349 118 127 142 153 218 433 492 781 1130
2019-12-08 11:00 3.45 534 2120 (2005) 99 (1956) 349 118 127 142 153 218 433 492 781 1130
2019-12-08 10:00 3.45 534 2120 (2005) 99 (1956) 349 118 127 142 153 218 433 492 781 1130
2019-12-08 09:00 3.45 534 2120 (2005) 99 (1956) 349 118 127 142 153 218 433 492 781 1130
2019-12-08 08:00 3.45 534 2120 (2005) 99 (1956) 349 118 127 142 153 218 433 492 781 1130
2019-12-08 07:00 3.46 539 2120 (2005) 99 (1956) 349 118 127 142 153 218 433 492 781 1130
2019-12-08 06:00 3.47 544 2120 (2005) 99 (1956) 349 118 127 142 153 218 433 492 781 1130
2019-12-08 05:00 3.47 544 2120 (2005) 99 (1956) 349 118 127 142 153 218 433 492 781 1130
2019-12-08 04:00 3.47 544 2120 (2005) 99 (1956) 349 118 127 142 153 218 433 492 781 1130
2019-12-08 03:00 3.48 549 2120 (2005) 99 (1956) 349 118 127 142 153 218 433 492 781 1130
2019-12-08 02:00 3.48 549 2120 (2005) 99 (1956) 349 118 127 142 153 218 433 492 781 1130
2019-12-08 01:00 3.49 554 2120 (2005) 99 (1956) 349 118 127 142 153 218 433 492 781 1130
2019-12-08 00:00 3.50 559 2120 (2005) 99 (1956) 349 118 127 142 153 218 433 492 781 1130
2019-12-07 23:00 3.51 564 1750 (1978) 99 (1956) 362 119 126 145 150 223 431 526 743 1250
2019-12-07 22:00 3.51 564 1750 (1978) 99 (1956) 362 119 126 145 150 223 431 526 743 1250
2019-12-07 21:00 3.51 564 1750 (1978) 99 (1956) 362 119 126 145 150 223 431 526 743 1250
2019-12-07 20:00 3.52 570 1750 (1978) 99 (1956) 362 119 126 145 150 223 431 526 743 1250
2019-12-07 19:00 3.53 575 1750 (1978) 99 (1956) 362 119 126 145 150 223 431 526 743 1250
2019-12-07 18:00 3.53 575 1750 (1978) 99 (1956) 362 119 126 145 150 223 431 526 743 1250
2019-12-07 17:00 3.54 580 1750 (1978) 99 (1956) 362 119 126 145 150 223 431 526 743 1250
2019-12-07 16:00 3.54 580 1750 (1978) 99 (1956) 362 119 126 145 150 223 431 526 743 1250
2019-12-07 15:00 3.55 585 1750 (1978) 99 (1956) 362 119 126 145 150 223 431 526 743 1250
2019-12-07 14:00 3.55 585 1750 (1978) 99 (1956) 362 119 126 145 150 223 431 526 743 1250
2019-12-07 13:00 3.56 591 1750 (1978) 99 (1956) 362 119 126 145 150 223 431 526 743 1250
2019-12-07 12:00 3.56 591 1750 (1978) 99 (1956) 362 119 126 145 150 223 431 526 743 1250
2019-12-07 11:00 3.57 596 1750 (1978) 99 (1956) 362 119 126 145 150 223 431 526 743 1250
2019-12-07 10:00 3.57 596 1750 (1978) 99 (1956) 362 119 126 145 150 223 431 526 743 1250
2019-12-07 09:00 3.58 601 1750 (1978) 99 (1956) 362 119 126 145 150 223 431 526 743 1250
2019-12-07 08:00 3.58 601 1750 (1978) 99 (1956) 362 119 126 145 150 223 431 526 743 1250
2019-12-07 07:00 3.59 607 1750 (1978) 99 (1956) 362 119 126 145 150 223 431 526 743 1250
2019-12-07 06:00 3.60 612 1750 (1978) 99 (1956) 362 119 126 145 150 223 431 526 743 1250
2019-12-07 05:00 3.60 612 1750 (1978) 99 (1956) 362 119 126 145 150 223 431 526 743 1250
2019-12-07 04:00 3.61 618 1750 (1978) 99 (1956) 362 119 126 145 150 223 431 526 743 1250
2019-12-07 03:00 3.62 623 1750 (1978) 99 (1956) 362 119 126 145 150 223 431 526 743 1250
2019-12-07 02:00 3.62 623 1750 (1978) 99 (1956) 362 119 126 145 150 223 431 526 743 1250
2019-12-07 01:00 3.63 629 1750 (1978) 99 (1956) 362 119 126 145 150 223 431 526 743 1250
2019-12-07 00:00 3.63 629 1750 (1978) 99 (1956) 362 119 126 145 150 223 431 526 743 1250
2019-12-06 23:00 3.64 634 6660 (1978) 99 (1956) 434 115 127 142 151 224 410 496 764 1320
2019-12-06 22:00 3.65 640 6660 (1978) 99 (1956) 434 115 127 142 151 224 410 496 764 1320
2019-12-06 21:00 3.66 646 6660 (1978) 99 (1956) 434 115 127 142 151 224 410 496 764 1320
2019-12-06 20:00 3.66 646 6660 (1978) 99 (1956) 434 115 127 142 151 224 410 496 764 1320
2019-12-06 19:00 3.67 651 6660 (1978) 99 (1956) 434 115 127 142 151 224 410 496 764 1320
2019-12-06 18:00 3.68 657 6660 (1978) 99 (1956) 434 115 127 142 151 224 410 496 764 1320
2019-12-06 17:00 3.68 657 6660 (1978) 99 (1956) 434 115 127 142 151 224 410 496 764 1320
2019-12-06 16:00 3.68 657 6660 (1978) 99 (1956) 434 115 127 142 151 224 410 496 764 1320
2019-12-06 15:00 3.70 669 6660 (1978) 99 (1956) 434 115 127 142 151 224 410 496 764 1320
2019-12-06 14:00 3.70 669 6660 (1978) 99 (1956) 434 115 127 142 151 224 410 496 764 1320
2019-12-06 13:00 3.71 674 6660 (1978) 99 (1956) 434 115 127 142 151 224 410 496 764 1320
2019-12-06 12:00 3.72 680 6660 (1978) 99 (1956) 434 115 127 142 151 224 410 496 764 1320
2019-12-06 11:00 3.72 680 6660 (1978) 99 (1956) 434 115 127 142 151 224 410 496 764 1320
2019-12-06 10:00 3.74 692 6660 (1978) 99 (1956) 434 115 127 142 151 224 410 496 764 1320
2019-12-06 09:00 3.74 692 6660 (1978) 99 (1956) 434 115 127 142 151 224 410 496 764 1320
2019-12-06 08:00 3.75 698 6660 (1978) 99 (1956) 434 115 127 142 151 224 410 496 764 1320
2019-12-06 07:00 3.75 698 6660 (1978) 99 (1956) 434 115 127 142 151 224 410 496 764 1320
2019-12-06 06:00 3.76 704 6660 (1978) 99 (1956) 434 115 127 142 151 224 410 496 764 1320
2019-12-06 05:00 3.77 710 6660 (1978) 99 (1956) 434 115 127 142 151 224 410 496 764 1320
2019-12-06 04:00 3.77 710 6660 (1978) 99 (1956) 434 115 127 142 151 224 410 496 764 1320
2019-12-06 03:00 3.78 716 6660 (1978) 99 (1956) 434 115 127 142 151 224 410 496 764 1320
2019-12-06 02:00 3.79 722 6660 (1978) 99 (1956) 434 115 127 142 151 224 410 496 764 1320
2019-12-06 01:00 3.79 722 6660 (1978) 99 (1956) 434 115 127 142 151 224 410 496 764 1320
2019-12-06 00:00 3.80 729 6660 (1978) 99 (1956) 434 115 127 142 151 224 410 496 764 1320

A total of 176 rows are displayed for years 1922 through 2018.

Trips for Big Piney River (Missouri), Big Piney (06930000)

DateStartEndDistanceConditionDischargeHeightFishingDetails
Click for details2004-05-16 Six Crossings Ross Total trip distance: 4.7 miles4.7 Good 575 3.75 None NoneNone Edmond, Alex
Edmond, Brian
Edmond, Joseph
Ince, Brianne
Edmond, Alex; Edmond, Brian; Edmond, Joseph; Ince, Brianne
No notes for this trip<i>No notes for this trip</i> USGS Gauge Data:
Big Piney (06930000)
Discharge: 575
Height: 3.75
<b>USGS Gauge Data:</b></br />Big Piney (06930000)<br />Discharge: 575<br />Height: 3.75
Source: EdmondSource: Edmond
Click for details2019-07-10 Slabtown Ross Bridge Total trip distance: 17.0 miles17.0 Good 317 2.93 Fair SMBSMB Voltz, Amy
Voltz, David
Voltz, James
Voltz, Peggy
Voltz, Amy; Voltz, David; Voltz, James; Voltz, Peggy
Camped on sandbar, saw no one for two days. (Combined two-day trip record.)Camped on sandbar, saw no one for two days. (Combined two-day trip record.) USGS Gauge Data:
Big Piney (06930000)
Discharge: 317
Height: 2.93
<b>USGS Gauge Data:</b></br />Big Piney (06930000)<br />Discharge: 317<br />Height: 2.93
Source: VoltzSource: Voltz
Click for details2014-12-14 Mason Bridge Slabtown Total trip distance: 9.0 miles9.0 Good 253 2.92 None NoneNone Ligon, Day
McKnight, Don
McKnight, Jen
Ligon, Day; McKnight, Don; McKnight, Jen
No notes for this trip<i>No notes for this trip</i> USGS Gauge Data:
Big Piney (06930000)
Discharge: 253
Height: 2.92
<b>USGS Gauge Data:</b></br />Big Piney (06930000)<br />Discharge: 253<br />Height: 2.92
Source: LigonSource: Ligon
Click for details2015-09-12 Boiling Springs Mason Bridge Total trip distance: 15.0 miles6.0 Good 225 2.80 Good KSB
LSF
RB
SMB
KSB, LSF, RB, SMB
Fillmore, Brian
Ligon, Day
Fillmore, Brian; Ligon, Day
No notes for this trip<i>No notes for this trip</i> USGS Gauge Data:
Big Piney (06930000)
Discharge: 225
Height: 2.80
<b>USGS Gauge Data:</b></br />Big Piney (06930000)<br />Discharge: 225<br />Height: 2.80
Source: FillmoreSource: Fillmore
Click for details2015-09-13 Mason Bridge Slabtown Total trip distance: 15.0 miles9.0 Good 217 2.77 Good KSB
LSF
RB
SMB
KSB, LSF, RB, SMB
Fillmore, Allie
Fillmore, Brian
Fillmore, Jenny
Fillmore, Keith
Fillmore, Allie; Fillmore, Brian; Fillmore, Jenny; Fillmore, Keith
No notes for this trip<i>No notes for this trip</i> USGS Gauge Data:
Big Piney (06930000)
Discharge: 217
Height: 2.77
<b>USGS Gauge Data:</b></br />Big Piney (06930000)<br />Discharge: 217<br />Height: 2.77
Source: FillmoreSource: Fillmore
Click for details2016-09-03 Boiling Springs Mason Bridge Total trip distance: 28.4 miles6.0 Good 197 2.85 Poor RBRB Edmond, Brian
Edmond, Julian
Ligon, Adalia
Ligon, Day
Ligon, Elseya
Van Someren, Tom
Williamson, Amelia
Williamson, Charlie
Edmond, Brian; Edmond, Julian; Ligon, Adalia; Ligon, Day; Ligon, Elseya; Van Someren, Tom; Williamson, Amelia; Williamson, Charlie
The water level was good through most areas. There were a few tricky sections, including one where we pulled the canoes through manually. There were several very long, still pools in this section (and further downstream as well).The water level was good through most areas. There were a few tricky sections, including one where we pulled the canoes through manually. There were several very long, still pools in this section (and further downstream as well). USGS Gauge Data:
Big Piney (06930000)
Discharge: 197
Height: 2.85
<b>USGS Gauge Data:</b></br />Big Piney (06930000)<br />Discharge: 197<br />Height: 2.85
Source: EdmondSource: Edmond
Click for details2016-09-03 Mason Bridge Hazelton Spring (A) Total trip distance: 28.4 miles4.3 Good 197 2.85 None NoneNone Van Someren, TomVan Someren, Tom Camped out Saturday night just above Hazelton Spring (mile 36.1).Camped out Saturday night just above Hazelton Spring (mile 36.1). USGS Gauge Data:
Big Piney (06930000)
Discharge: 197
Height: 2.85
<b>USGS Gauge Data:</b></br />Big Piney (06930000)<br />Discharge: 197<br />Height: 2.85
Source: Van SomerenSource: Van Someren
Click for details2016-09-04 Hazelton Spring (A) Six Crossings (B) Total trip distance: 28.4 miles14.9 Good 192 2.83 Fair RB
SMB
RB, SMB
Van Someren, TomVan Someren, Tom Camped out Sunday on a small sand bar at mile 51 (37.643281, -92.060840).Camped out Sunday on a small sand bar at mile 51 (37.643281, -92.060840). USGS Gauge Data:
Big Piney (06930000)
Discharge: 192
Height: 2.83
<b>USGS Gauge Data:</b></br />Big Piney (06930000)<br />Discharge: 192<br />Height: 2.83
Source: Van SomerenSource: Van Someren
Click for details2016-09-05 Six Crossings (B) Ross Bridge Total trip distance: 28.4 miles3.2 Good 187 2.81 None NoneNone Van Someren, TomVan Someren, Tom This section had way too many long, slow, lake-ish pools with virtually no current.This section had way too many long, slow, lake-ish pools with virtually no current. USGS Gauge Data:
Big Piney (06930000)
Discharge: 187
Height: 2.81
<b>USGS Gauge Data:</b></br />Big Piney (06930000)<br />Discharge: 187<br />Height: 2.81
Source: Van SomerenSource: Van Someren
Click for details2003-08-16 Sandy Shoals Boiling Springs Total trip distance: 6.5 miles6.5 Good 125 2.42 None NoneNone Ballard, Christina
Ballard, Kevin
Ballard, Paige
Ballard, Webb
Edmond, Alex
Edmond, Brian
Edmond, Joseph
Edmond, Rich
Edmond, Susie
Grote, Jordan
Hays, Chloe
Hays, Kim
Houseworth, Bart
Houseworth, Julie
Parker, Mike
Parker, Teriann
Storts, Amy Jo
Storts, Kaleb
Storts, Kylie Jo
Storts, Todd
Ballard, Christina; Ballard, Kevin; Ballard, Paige; Ballard, Webb; Edmond, Alex; Edmond, Brian; Edmond, Joseph; Edmond, Rich; Edmond, Susie; Grote, Jordan; Hays, Chloe; Hays, Kim; Houseworth, Bart; Houseworth, Julie; Parker, Mike; Parker, Teriann; Storts, Amy Jo; Storts, Kaleb; Storts, Kylie Jo; Storts, Todd
No notes for this trip<i>No notes for this trip</i> USGS Gauge Data:
Big Piney (06930000)
Discharge: 125
Height: 2.42
<b>USGS Gauge Data:</b></br />Big Piney (06930000)<br />Discharge: 125<br />Height: 2.42
Source: EdmondSource: Edmond

A total of 10 rows are displayed.

Trip Summary for Big Piney River (Missouri), Big Piney (06930000)

Miles80.6
Trips6
People38
Dates9
Years6
Months5
Rows10
Sources5

Condition Descriptions

Fishing Conditions

Fish Species

Notes

Classic Trip List

The classic River Trips application is still available for use. It is updated with the new system using a data retrofit. It is no longer maintained. The original River Trips application is no longer updated (as of 1 Dec 2016) but can be checked for errors or for the condition of the data before it was converted to the new system.